createdAt,value
2022-08-26T00:00:00.714Z,987.3672
2022-08-26T00:01:00.861Z,987.462
2022-08-26T00:02:01.001Z,987.3965
2022-08-26T00:03:01.227Z,987.353
2022-08-26T00:04:00.336Z,987.4774
2022-08-26T00:05:00.438Z,987.2651
2022-08-26T00:06:00.608Z,987.3822
2022-08-26T00:07:00.748Z,987.3391
2022-08-26T00:08:00.896Z,987.3028
2022-08-26T00:09:01.055Z,987.3544
2022-08-26T00:10:01.215Z,987.4715
2022-08-26T00:11:00.379Z,987.2681
2022-08-26T00:12:00.512Z,987.29
2022-08-26T00:13:00.723Z,987.29
2022-08-26T00:14:00.793Z,987.4294
2022-08-26T00:15:00.940Z,987.4517
2022-08-26T00:16:01.112Z,987.2984
2022-08-26T00:17:01.297Z,987.2552
2022-08-26T00:18:00.389Z,987.4601
2022-08-26T00:19:00.541Z,987.3357
2022-08-26T00:20:00.712Z,987.2633
2022-08-26T00:21:00.868Z,987.3218
2022-08-26T00:22:00.988Z,987.2717
2022-08-26T00:23:01.203Z,987.2871
2022-08-26T00:24:00.307Z,987.1993
2022-08-26T00:25:00.452Z,987.3606
2022-08-26T00:26:00.618Z,987.2593
2022-08-26T00:27:00.743Z,987.2157
2022-08-26T00:28:00.901Z,987.238
2022-08-26T00:29:01.047Z,987.245
2022-08-26T00:30:01.206Z,987.2742
2022-08-26T00:31:00.364Z,987.4512
2022-08-26T00:32:00.581Z,987.1294
2022-08-26T00:33:00.684Z,987.2018
2022-08-26T00:34:00.798Z,987.2103
2022-08-26T00:35:00.947Z,987.2172
2022-08-26T00:36:01.091Z,987.1726
2022-08-26T00:37:00.271Z,987.3843
2022-08-26T00:38:00.406Z,987.2099
2022-08-26T00:39:00.574Z,987.181
2022-08-26T00:40:01.048Z,987.2033
2022-08-26T00:41:00.845Z,987.2841
2022-08-26T00:42:01.000Z,987.241
2022-08-26T00:43:01.178Z,987.189
2022-08-26T00:44:00.323Z,987.2476
2022-08-26T00:45:00.456Z,987.1529
2022-08-26T00:46:00.673Z,987.2337
2022-08-26T00:47:00.764Z,987.2351
2022-08-26T00:48:00.916Z,987.1997
2022-08-26T00:49:01.088Z,987.2446
2022-08-26T00:50:01.210Z,987.2011
2022-08-26T00:51:00.360Z,987.3988
2022-08-26T00:52:00.510Z,987.3265
2022-08-26T00:53:00.739Z,987.1942
2022-08-26T00:54:00.859Z,987.2446
2022-08-26T00:55:00.974Z,987.3988
2022-08-26T00:56:01.124Z,987.2596
2022-08-26T00:57:00.373Z,987.1507
2022-08-26T00:58:00.410Z,987.063
2022-08-26T00:59:00.583Z,987.2234
2022-08-26T01:00:00.738Z,987.3265
2022-08-26T01:01:00.941Z,987.3126
2022-08-26T01:02:02.828Z,987.2106
2022-08-26T01:03:01.221Z,987.3711
2022-08-26T01:04:00.376Z,987.3711
2022-08-26T01:05:00.490Z,987.2468
2022-08-26T01:06:00.632Z,987.3418
2022-08-26T01:07:00.782Z,987.3053
2022-08-26T01:08:00.920Z,987.2468
2022-08-26T01:09:01.064Z,987.2987
2022-08-26T01:10:01.224Z,987.211
2022-08-26T01:11:00.380Z,987.2552
2022-08-26T01:12:00.514Z,987.2402
2022-08-26T01:13:00.726Z,987.2844
2022-08-26T01:14:00.816Z,987.3148
2022-08-26T01:15:00.962Z,987.4025
2022-08-26T01:16:01.186Z,987.2716
2022-08-26T01:17:00.280Z,987.192
2022-08-26T01:18:00.426Z,987.3093
2022-08-26T01:19:00.574Z,987.3093
2022-08-26T01:20:00.720Z,987.3093
2022-08-26T01:21:00.903Z,987.3093
2022-08-26T01:22:01.033Z,987.3385
2022-08-26T01:23:01.610Z,987.3104
2022-08-26T01:24:00.313Z,987.2231
2022-08-26T01:25:00.460Z,987.1646
2022-08-26T01:26:00.627Z,987.1938
2022-08-26T01:27:00.755Z,987.4119
2022-08-26T01:28:00.931Z,987.0766
2022-08-26T01:29:01.052Z,987.2589
2022-08-26T01:30:01.208Z,987.3984
2022-08-26T01:31:00.372Z,987.1752
2022-08-26T01:32:00.621Z,987.3877
2022-08-26T01:33:00.741Z,987.2417
2022-08-26T01:34:00.815Z,987.3447
2022-08-26T01:35:00.965Z,987.3293
2022-08-26T01:36:01.150Z,987.1833
2022-08-26T01:37:00.266Z,987.3958
2022-08-26T01:38:00.425Z,987.3373
2022-08-26T01:39:00.596Z,987.3373
2022-08-26T01:40:00.766Z,987.3877
2022-08-26T01:41:00.886Z,987.3001
2022-08-26T01:42:03.038Z,987.2194
2022-08-26T01:43:01.207Z,987.2267
2022-08-26T01:44:00.323Z,987.2417
2022-08-26T01:45:00.489Z,987.257
2022-08-26T01:46:00.676Z,987.2497
2022-08-26T01:47:00.787Z,987.2205
2022-08-26T01:48:00.929Z,987.4546
2022-08-26T01:49:01.073Z,987.2501
2022-08-26T01:50:01.261Z,987.3012
2022-08-26T01:51:00.411Z,987.272
2022-08-26T01:52:00.570Z,987.3012
2022-08-26T01:53:00.714Z,987.2581
2022-08-26T01:54:00.873Z,987.3822
2022-08-26T01:55:01.048Z,987.4699
2022-08-26T01:56:01.177Z,987.4695
2022-08-26T01:57:00.327Z,987.2654
2022-08-26T01:58:00.484Z,987.31
2022-08-26T01:59:00.632Z,987.2592
2022-08-26T02:00:00.816Z,987.5085
2022-08-26T02:01:00.990Z,987.3914
2022-08-26T02:02:01.108Z,987.2607
2022-08-26T02:03:01.305Z,987.2764
2022-08-26T02:04:00.378Z,987.2107
2022-08-26T02:05:00.641Z,987.1523
2022-08-26T02:06:00.696Z,987.218
2022-08-26T02:07:00.833Z,987.3567
2022-08-26T02:08:00.968Z,987.3567
2022-08-26T02:09:01.127Z,987.226
2022-08-26T02:10:00.315Z,987.2041
2022-08-26T02:11:00.436Z,987.2917
2022-08-26T02:12:00.585Z,987.3567
2022-08-26T02:13:00.823Z,987.2107
2022-08-26T02:14:00.886Z,987.2041
2022-08-26T02:15:01.049Z,987.2399
2022-08-26T02:16:01.195Z,987.2107
2022-08-26T02:17:00.337Z,987.1815
2022-08-26T02:18:00.489Z,987.3209
2022-08-26T02:19:00.654Z,987.2844
2022-08-26T02:20:00.816Z,987.3139
2022-08-26T02:21:00.960Z,987.2705
2022-08-26T02:22:01.107Z,987.4169
2022-08-26T02:24:00.374Z,987.3373
2022-08-26T02:25:00.515Z,987.1256
2022-08-26T02:26:00.680Z,987.265
2022-08-26T02:27:00.824Z,987.2939
2022-08-26T02:28:00.975Z,987.0315
2022-08-26T02:29:01.168Z,987.0103
2022-08-26T02:30:00.292Z,986.9812
2022-08-26T02:31:00.450Z,987.1421
2022-08-26T02:32:00.599Z,987.0771
2022-08-26T02:33:00.752Z,987.0771
2022-08-26T02:34:00.919Z,987.1869
2022-08-26T02:35:01.044Z,987.1654
2022-08-26T02:36:01.194Z,986.9987
2022-08-26T02:37:00.347Z,987.3128
2022-08-26T02:38:00.500Z,987.1012
2022-08-26T02:39:00.677Z,987.0793
2022-08-26T02:40:00.847Z,987.021
2022-08-26T02:41:00.948Z,987.1377
2022-08-26T02:42:01.112Z,987.1304
2022-08-26T02:44:00.384Z,987.0874
2022-08-26T02:45:00.514Z,987.2333
2022-08-26T02:46:02.187Z,987.0443
2022-08-26T02:47:00.845Z,987.118
2022-08-26T02:48:00.965Z,987.0816
2022-08-26T02:49:01.125Z,987.1107
2022-08-26T02:50:00.327Z,987.0816
2022-08-26T02:51:00.416Z,987.1107
2022-08-26T02:52:00.581Z,987.0816
2022-08-26T02:53:00.746Z,987.0816
2022-08-26T02:54:00.871Z,987.0094
2022-08-26T02:55:01.042Z,987.0816
2022-08-26T02:56:01.169Z,987.0094
2022-08-26T02:57:00.334Z,987.0677
2022-08-26T02:58:00.496Z,987.0316
2022-08-26T02:59:00.644Z,986.9733
2022-08-26T03:00:00.823Z,987.0178
2022-08-26T03:01:01.572Z,987.0911
2022-08-26T03:02:01.160Z,986.916
2022-08-26T03:03:01.269Z,986.8442
2022-08-26T03:04:00.397Z,987.0911
2022-08-26T03:05:01.978Z,986.9678
2022-08-26T03:06:00.703Z,986.9678
2022-08-26T03:07:00.844Z,986.9317
2022-08-26T03:08:00.997Z,986.9026
2022-08-26T03:09:01.141Z,986.9901
2022-08-26T03:10:00.319Z,987.0192
2022-08-26T03:11:01.629Z,986.8818
2022-08-26T03:12:00.592Z,986.7816
2022-08-26T03:13:00.780Z,986.8261
2022-08-26T03:14:01.746Z,986.8983
2022-08-26T03:15:01.057Z,986.8983
2022-08-26T03:16:01.214Z,986.7663
2022-08-26T03:17:00.352Z,986.8246
2022-08-26T03:18:00.497Z,986.9344
2022-08-26T03:19:00.658Z,986.8844
2022-08-26T03:20:00.811Z,986.876
2022-08-26T03:21:00.964Z,986.8469
2022-08-26T03:22:01.088Z,986.8691
2022-08-26T03:23:01.305Z,986.9413
2022-08-26T03:24:00.520Z,986.9566
2022-08-26T03:25:00.566Z,986.833
2022-08-26T03:26:00.701Z,986.8108
2022-08-26T03:27:00.843Z,986.8983
2022-08-26T03:28:00.994Z,986.8622
2022-08-26T03:29:01.141Z,986.8998
2022-08-26T03:30:00.320Z,986.98
2022-08-26T03:31:00.520Z,986.805
2022-08-26T03:32:00.585Z,986.8272
2022-08-26T03:33:00.750Z,986.9439
2022-08-26T03:34:00.894Z,986.937
2022-08-26T03:35:01.051Z,986.8426
2022-08-26T03:36:01.182Z,986.8644
2022-08-26T03:37:00.334Z,986.8357
2022-08-26T03:38:00.485Z,986.9742
2022-08-26T03:39:00.630Z,986.7992
2022-08-26T03:40:00.862Z,986.945
2022-08-26T03:41:00.936Z,986.8065
2022-08-26T03:42:01.085Z,986.8284
2022-08-26T03:43:01.286Z,987.0325
2022-08-26T03:44:01.866Z,986.8284
2022-08-26T03:45:00.549Z,986.8372
2022-08-26T03:46:00.678Z,986.9173
2022-08-26T03:47:00.826Z,986.9173
2022-08-26T03:48:00.985Z,986.8882
2022-08-26T03:49:01.156Z,986.8452
2022-08-26T03:50:00.285Z,986.8897
2022-08-26T03:51:00.452Z,986.9035
2022-08-26T03:52:00.584Z,987.0784
2022-08-26T03:53:00.726Z,986.8452
2022-08-26T03:54:00.882Z,986.8744
2022-08-26T03:55:01.060Z,987.0339
2022-08-26T03:56:01.197Z,986.9756
2022-08-26T03:57:00.346Z,986.9246
2022-08-26T03:58:00.487Z,987.0478
2022-08-26T03:59:00.639Z,986.8955
2022-08-26T04:00:00.809Z,986.9603
2022-08-26T04:01:00.947Z,986.8813
2022-08-26T04:02:01.150Z,986.9906
2022-08-26T04:03:01.362Z,986.991
2022-08-26T04:04:00.848Z,986.9629
2022-08-26T04:05:00.548Z,987.1098
2022-08-26T04:06:00.704Z,986.9349
2022-08-26T04:07:00.851Z,986.8183
2022-08-26T04:08:01.010Z,987.1098
2022-08-26T04:09:01.152Z,986.8475
2022-08-26T04:10:00.330Z,987.1892
2022-08-26T04:11:00.465Z,986.8475
2022-08-26T04:12:00.608Z,986.8183
2022-08-26T04:13:00.780Z,986.8475
2022-08-26T04:14:00.914Z,987.1098
2022-08-26T04:15:01.093Z,986.7823
2022-08-26T04:16:01.250Z,987.0376
2022-08-26T04:17:00.364Z,987.0376
2022-08-26T04:18:00.512Z,987.0376
2022-08-26T04:19:00.668Z,987.0376
2022-08-26T04:20:00.851Z,986.8934
2022-08-26T04:21:00.978Z,986.9295
2022-08-26T04:22:01.123Z,987.0376
2022-08-26T04:23:00.262Z,987.0376
2022-08-26T04:24:00.421Z,987.0376
2022-08-26T04:25:00.583Z,986.8988
2022-08-26T04:26:00.745Z,986.8766
2022-08-26T04:27:00.866Z,987.0376
2022-08-26T04:28:01.017Z,987.0664
2022-08-26T04:29:01.158Z,987.0376
2022-08-26T04:30:00.298Z,987.0376
2022-08-26T04:31:00.498Z,986.9808
2022-08-26T04:32:00.605Z,986.8934
2022-08-26T04:33:00.750Z,986.8574
2022-08-26T04:34:00.901Z,987.0376
2022-08-26T04:35:01.059Z,986.8336
2022-08-26T04:36:01.232Z,987.0664
2022-08-26T04:37:00.381Z,987.0376
2022-08-26T04:38:00.518Z,986.814
2022-08-26T04:39:00.675Z,986.778
2022-08-26T04:40:00.929Z,986.8516
2022-08-26T04:41:00.990Z,986.8075
2022-08-26T04:42:01.762Z,987.0905
2022-08-26T04:43:00.303Z,986.8071
2022-08-26T04:44:00.426Z,987.0031
2022-08-26T04:45:00.577Z,986.8574
2022-08-26T04:46:00.824Z,987.0959
2022-08-26T04:47:00.882Z,987.1542
2022-08-26T04:48:01.024Z,986.8336
2022-08-26T04:49:01.178Z,987.0737
2022-08-26T04:50:00.325Z,987.1098
2022-08-26T04:51:00.495Z,987.1098
2022-08-26T04:52:00.627Z,987.1892
2022-08-26T04:53:00.773Z,986.9269
2022-08-26T04:54:00.929Z,986.9269
2022-08-26T04:55:01.074Z,987.1892
2022-08-26T04:56:01.241Z,987.1892
2022-08-26T04:57:00.360Z,986.999
2022-08-26T04:58:00.538Z,987.0646
2022-08-26T04:59:00.678Z,987.0784
2022-08-26T05:00:00.867Z,986.9906
2022-08-26T05:01:00.992Z,986.9756
2022-08-26T05:02:01.187Z,986.9538
2022-08-26T05:03:00.324Z,986.9603
2022-08-26T05:04:00.507Z,987.0616
2022-08-26T05:05:00.610Z,987.0398
2022-08-26T05:06:00.760Z,987.0977
2022-08-26T05:07:02.712Z,986.9078
2022-08-26T05:08:01.074Z,987.0383
2022-08-26T05:09:01.240Z,987.1549
2022-08-26T05:10:00.354Z,987.0456
2022-08-26T05:11:00.507Z,987.0233
2022-08-26T05:12:00.651Z,987.0732
2022-08-26T05:13:00.796Z,986.9635
2022-08-26T05:14:02.379Z,986.9777
2022-08-26T05:15:01.089Z,987.0426
2022-08-26T05:16:01.530Z,987.0426
2022-08-26T05:17:00.391Z,987.1068
2022-08-26T05:18:00.573Z,986.9901
2022-08-26T05:19:00.720Z,987.0108
2022-08-26T05:20:00.850Z,987.0539
2022-08-26T05:21:00.992Z,987.0094
2022-08-26T05:22:01.151Z,987.0816
2022-08-26T05:23:00.294Z,986.9721
2022-08-26T05:24:00.454Z,987.0874
2022-08-26T05:25:00.632Z,987.1304
2022-08-26T05:26:00.753Z,987.1016
2022-08-26T05:27:00.891Z,987.1085
2022-08-26T05:28:01.043Z,987.0126
2022-08-26T05:29:01.201Z,987.1063
2022-08-26T05:30:00.382Z,987.1855
2022-08-26T05:31:00.587Z,986.9144
2022-08-26T05:32:00.674Z,986.9497
2022-08-26T05:33:00.807Z,986.9494
2022-08-26T05:34:03.698Z,986.9048
2022-08-26T05:35:01.101Z,986.9187
2022-08-26T05:36:01.253Z,986.9686
2022-08-26T05:37:00.428Z,986.9825
2022-08-26T05:38:00.547Z,986.9675
2022-08-26T05:39:00.703Z,986.8719
2022-08-26T05:40:00.881Z,986.9438
2022-08-26T05:41:01.002Z,986.9203
2022-08-26T05:42:01.198Z,986.89
2022-08-26T05:43:00.323Z,986.8969
2022-08-26T05:44:00.480Z,987.1069
2022-08-26T05:45:00.632Z,986.9893
2022-08-26T05:46:00.823Z,987.0181
2022-08-26T05:47:00.969Z,986.9447
2022-08-26T05:48:01.084Z,986.9874
2022-08-26T05:49:01.233Z,986.914
2022-08-26T05:50:00.378Z,987.1321
2022-08-26T05:51:00.543Z,987.0225
2022-08-26T05:52:00.699Z,987.1383
2022-08-26T05:53:00.842Z,986.8891
2022-08-26T05:54:00.981Z,986.9172
2022-08-26T05:55:01.124Z,986.8214
2022-08-26T05:56:00.282Z,986.923
2022-08-26T05:57:00.449Z,986.9507
2022-08-26T05:58:00.577Z,986.8922
2022-08-26T05:59:00.734Z,986.9423
2022-08-26T06:00:00.891Z,986.9997
2022-08-26T06:01:01.033Z,986.9119
2022-08-26T06:02:01.246Z,986.9997
2022-08-26T06:03:00.575Z,986.89
2022-08-26T06:04:01.650Z,986.8746
2022-08-26T06:05:00.645Z,986.823
2022-08-26T06:06:00.789Z,986.8589
2022-08-26T06:07:00.939Z,986.7923
2022-08-26T06:08:01.112Z,987.0109
2022-08-26T06:09:01.250Z,986.7842
2022-08-26T06:10:28.335Z,986.8046
2022-08-26T06:11:00.540Z,986.9217
2022-08-26T06:12:00.689Z,986.8255
2022-08-26T06:13:04.588Z,986.8759
2022-08-26T06:14:03.835Z,986.8675
2022-08-26T06:15:01.146Z,986.7866
2022-08-26T06:16:00.379Z,986.8663
2022-08-26T06:17:00.449Z,986.9388
2022-08-26T06:18:00.621Z,986.975
2022-08-26T06:19:00.772Z,986.8568
2022-08-26T06:20:00.904Z,986.8194
2022-08-26T06:21:01.053Z,986.9127
2022-08-26T06:22:01.205Z,986.7879
2022-08-26T06:23:00.353Z,986.962
2022-08-26T06:24:00.529Z,986.9243
2022-08-26T06:25:00.674Z,986.8642
2022-08-26T06:26:00.819Z,986.9283
2022-08-26T06:27:00.973Z,987.1018
2022-08-26T06:28:01.124Z,986.9985
2022-08-26T06:29:00.297Z,986.9974
2022-08-26T06:30:00.426Z,986.9373
2022-08-26T06:31:00.625Z,986.812
2022-08-26T06:32:00.728Z,986.9281
2022-08-26T06:33:00.874Z,986.942
2022-08-26T06:34:01.039Z,986.9999
2022-08-26T06:35:01.199Z,987.1234
2022-08-26T06:36:00.331Z,986.8958
2022-08-26T06:37:01.296Z,986.9027
2022-08-26T06:38:00.639Z,986.7854
2022-08-26T06:39:00.782Z,987.0046
2022-08-26T06:40:01.004Z,986.8136
2022-08-26T06:41:01.081Z,986.9822
2022-08-26T06:42:01.226Z,986.9587
2022-08-26T06:43:00.367Z,986.8553
2022-08-26T06:44:00.523Z,986.9279
2022-08-26T06:45:00.689Z,986.8164
2022-08-26T06:46:00.856Z,986.9102
2022-08-26T06:47:01.004Z,986.9018
2022-08-26T06:48:01.121Z,986.8281
2022-08-26T06:49:00.286Z,986.82
2022-08-26T06:50:00.427Z,986.8049
2022-08-26T06:51:00.572Z,986.8771
2022-08-26T06:52:00.735Z,986.7737
2022-08-26T06:53:00.869Z,986.8243
2022-08-26T06:54:01.048Z,986.9402
2022-08-26T06:55:01.184Z,986.873
2022-08-26T06:56:00.321Z,986.8579
2022-08-26T06:57:00.483Z,986.8344
2022-08-26T06:58:00.636Z,986.9797
2022-08-26T06:59:00.803Z,986.8093
2022-08-26T07:00:00.944Z,986.8372
2022-08-26T07:01:09.124Z,986.872
2022-08-26T07:02:01.247Z,986.8624
2022-08-26T07:03:00.456Z,986.8462
2022-08-26T07:04:00.564Z,986.8729
2022-08-26T07:05:00.702Z,986.7624
2022-08-26T07:06:00.839Z,986.7608
2022-08-26T07:07:00.991Z,986.8479
2022-08-26T07:08:01.136Z,986.81
2022-08-26T07:09:00.321Z,986.9264
2022-08-26T07:10:00.447Z,986.7342
2022-08-26T07:11:00.601Z,986.564
2022-08-26T07:12:00.744Z,986.8855
2022-08-26T07:13:01.027Z,986.7822
2022-08-26T07:14:01.067Z,986.7432
2022-08-26T07:15:01.200Z,986.7126
2022-08-26T07:16:03.050Z,986.7843
2022-08-26T07:17:00.491Z,986.6344
2022-08-26T07:18:00.646Z,986.7201
2022-08-26T07:19:01.145Z,986.7693
2022-08-26T07:20:00.940Z,986.7372
2022-08-26T07:21:01.105Z,986.5957
2022-08-26T07:22:01.255Z,986.638
2022-08-26T07:23:00.411Z,986.6295
2022-08-26T07:24:01.485Z,986.5654
2022-08-26T07:25:00.706Z,986.569
2022-08-26T07:26:00.849Z,986.6492
2022-08-26T07:27:00.998Z,986.7303
2022-08-26T07:28:01.155Z,986.5414
2022-08-26T07:29:00.311Z,986.7361
2022-08-26T07:30:00.467Z,986.809
2022-08-26T07:31:00.627Z,986.6675
2022-08-26T07:32:00.766Z,986.6369
2022-08-26T07:33:00.902Z,986.6287
2022-08-26T07:34:01.050Z,986.7819
2022-08-26T07:35:01.222Z,986.6481
2022-08-26T07:36:00.348Z,986.7649
2022-08-26T07:37:00.512Z,986.8452
2022-08-26T07:38:00.663Z,986.8088
2022-08-26T07:39:00.801Z,986.6024
2022-08-26T07:40:00.983Z,986.8452
2022-08-26T07:41:01.098Z,986.6893
2022-08-26T07:42:01.251Z,986.5698
2022-08-26T07:43:01.006Z,986.6272
2022-08-26T07:44:00.552Z,986.685
2022-08-26T07:45:00.730Z,986.5954
2022-08-26T07:46:00.860Z,986.5799
2022-08-26T07:47:01.012Z,986.6598
2022-08-26T07:48:01.161Z,986.6727
2022-08-26T07:49:00.380Z,986.6929
2022-08-26T07:50:00.486Z,986.5958
2022-08-26T07:51:00.627Z,986.6102
2022-08-26T07:52:00.773Z,986.6168
2022-08-26T07:53:00.924Z,986.7263
2022-08-26T07:54:01.073Z,986.5997
2022-08-26T07:55:01.259Z,986.656
2022-08-26T07:56:00.381Z,986.7435
2022-08-26T07:57:00.540Z,986.6016
2022-08-26T07:58:00.682Z,986.6215
2022-08-26T07:59:00.821Z,986.6989
2022-08-26T08:00:00.995Z,986.6441
2022-08-26T08:01:01.161Z,986.8487
2022-08-26T08:02:00.398Z,986.6982
2022-08-26T08:03:00.441Z,986.7635
2022-08-26T08:04:00.581Z,986.6437
2022-08-26T08:05:00.886Z,986.6928
2022-08-26T08:06:00.915Z,986.5717
2022-08-26T08:07:01.080Z,986.6877
2022-08-26T08:08:27.277Z,986.6496
2022-08-26T08:09:00.377Z,986.6033
2022-08-26T08:10:00.535Z,986.7711
2022-08-26T08:11:00.694Z,986.696
2022-08-26T08:12:00.817Z,986.5908
2022-08-26T08:13:00.987Z,986.7884
2022-08-26T08:14:01.127Z,986.6672
2022-08-26T08:15:00.278Z,986.7082
2022-08-26T08:16:00.439Z,986.5396
2022-08-26T08:17:00.703Z,986.6306
2022-08-26T08:18:00.979Z,986.6946
2022-08-26T08:19:00.876Z,986.5674
2022-08-26T08:20:01.023Z,986.6396
2022-08-26T08:21:20.921Z,986.517
2022-08-26T08:22:00.335Z,986.6396
2022-08-26T08:23:00.471Z,986.6751
2022-08-26T08:24:00.617Z,986.7473
2022-08-26T08:25:00.776Z,986.5243
2022-08-26T08:26:00.922Z,986.5932
2022-08-26T08:27:01.092Z,986.5415
2022-08-26T08:28:01.224Z,986.4962
2022-08-26T08:29:00.369Z,986.5897
2022-08-26T08:30:00.514Z,986.6049
2022-08-26T08:31:00.687Z,986.6049
2022-08-26T08:32:00.880Z,986.4357
2022-08-26T08:33:00.966Z,986.552
2022-08-26T08:34:01.116Z,986.4668
2022-08-26T08:35:00.287Z,986.7796
2022-08-26T08:36:00.416Z,986.3883
2022-08-26T08:37:00.593Z,986.4985
2022-08-26T08:38:00.713Z,986.3871
2022-08-26T08:39:00.861Z,986.4844
2022-08-26T08:40:01.070Z,986.5059
2022-08-26T08:41:01.171Z,986.3784
2022-08-26T08:42:00.339Z,986.3471
2022-08-26T08:43:00.473Z,986.5371
2022-08-26T08:44:00.634Z,986.4761
2022-08-26T08:45:00.784Z,986.5187
2022-08-26T08:46:00.960Z,986.3619
2022-08-26T08:47:01.107Z,986.4651
2022-08-26T08:48:01.257Z,986.3591
2022-08-26T08:49:00.412Z,986.4467
2022-08-26T08:50:00.564Z,986.2064
2022-08-26T08:51:00.742Z,986.3065
2022-08-26T08:52:00.879Z,986.3636
2022-08-26T08:53:01.044Z,986.2884
2022-08-26T08:54:01.168Z,986.2657
2022-08-26T08:55:00.332Z,986.2347
2022-08-26T08:56:00.468Z,986.2774
2022-08-26T08:57:00.621Z,986.2903
2022-08-26T08:58:04.991Z,986.2307
2022-08-26T08:59:00.923Z,986.2738
2022-08-26T09:00:01.077Z,986.3019
2022-08-26T09:01:01.257Z,986.2577
2022-08-26T09:02:00.399Z,986.3333
2022-08-26T09:03:00.551Z,986.1261
2022-08-26T09:04:01.134Z,986.3462
2022-08-26T09:05:00.841Z,986.0977
2022-08-26T09:06:00.983Z,986.1929
2022-08-26T09:07:01.130Z,986.1999
2022-08-26T09:08:00.308Z,986.1101
2022-08-26T09:09:00.445Z,986.1528
2022-08-26T09:10:00.589Z,986.1061
2022-08-26T09:11:00.733Z,986.2225
2022-08-26T09:12:00.875Z,986.1753
2022-08-26T09:13:01.046Z,986.2279
2022-08-26T09:14:01.179Z,986.3091
2022-08-26T09:15:00.331Z,986.1616
2022-08-26T09:16:00.490Z,986.1036
2022-08-26T09:17:00.695Z,986.0805
2022-08-26T09:18:00.801Z,986.0788
2022-08-26T09:19:00.964Z,986.2565
2022-08-26T09:20:01.132Z,985.9985
2022-08-26T09:21:00.261Z,986.0879
2022-08-26T09:22:00.416Z,986.1157
2022-08-26T09:23:00.576Z,986.0548
2022-08-26T09:24:00.736Z,986.1546
2022-08-26T09:25:00.910Z,986.0511
2022-08-26T09:26:01.066Z,985.9596
2022-08-26T09:27:01.193Z,986.1215
2022-08-26T09:28:00.337Z,986.136
2022-08-26T09:29:00.500Z,986.105
2022-08-26T09:30:00.656Z,986.0139
2022-08-26T09:31:00.860Z,985.8934
2022-08-26T09:32:00.978Z,986.1916
2022-08-26T09:33:01.104Z,986.1618
2022-08-26T09:34:01.259Z,986.0723
2022-08-26T09:35:00.408Z,986.0425
2022-08-26T09:36:00.558Z,986.0566
2022-08-26T09:37:00.734Z,986.0102
2022-08-26T09:38:00.867Z,986.1362
2022-08-26T09:39:01.031Z,985.9588
2022-08-26T09:40:01.226Z,985.8635
2022-08-26T09:41:00.331Z,986.132
2022-08-26T09:42:00.504Z,986.1348
2022-08-26T09:43:00.647Z,986.2525
2022-08-26T09:44:00.797Z,986.132
2022-08-26T09:45:00.946Z,986.0437
2022-08-26T09:46:01.145Z,986.0917
2022-08-26T09:47:01.258Z,986.1248
2022-08-26T09:48:01.345Z,986.0179
2022-08-26T09:49:00.548Z,985.9612
2022-08-26T09:50:00.697Z,986.1556
2022-08-26T09:51:00.862Z,986.0803
2022-08-26T09:52:01.026Z,986.0191
2022-08-26T09:53:01.150Z,986.0055
2022-08-26T09:54:00.296Z,985.9893
2022-08-26T09:55:00.490Z,985.9289
2022-08-26T09:56:00.624Z,985.9273
2022-08-26T09:57:00.784Z,985.9115
2022-08-26T09:58:04.053Z,985.9161
2022-08-26T09:59:01.078Z,985.9426
2022-08-26T10:00:01.228Z,985.8648
2022-08-26T10:01:00.437Z,985.8921
2022-08-26T10:03:00.705Z,985.8209
2022-08-26T10:04:00.887Z,985.7015
2022-08-26T10:05:09.186Z,985.8333
2022-08-26T10:06:01.143Z,985.818
2022-08-26T10:07:00.312Z,985.893
2022-08-26T10:08:00.454Z,985.726
2022-08-26T10:09:01.395Z,985.8921
2022-08-26T10:10:00.761Z,985.8051
2022-08-26T10:11:00.909Z,985.6858
2022-08-26T10:12:01.057Z,985.8888
2022-08-26T10:13:01.200Z,985.7554
2022-08-26T10:14:00.370Z,985.8689
2022-08-26T10:15:00.539Z,985.842
2022-08-26T10:16:00.666Z,985.7783
2022-08-26T10:17:00.872Z,985.6024
2022-08-26T10:18:00.960Z,985.7895
2022-08-26T10:19:01.119Z,985.6864
2022-08-26T10:20:00.312Z,985.5971
2022-08-26T10:21:00.439Z,985.6649
2022-08-26T10:22:00.598Z,985.7018
2022-08-26T10:23:00.739Z,985.6269
2022-08-26T10:24:00.878Z,985.6509
2022-08-26T10:25:01.051Z,985.5996
2022-08-26T10:26:01.233Z,985.543
2022-08-26T10:27:00.345Z,985.7659
2022-08-26T10:28:00.495Z,985.4383
2022-08-26T10:29:00.650Z,985.4751
2022-08-26T10:30:00.789Z,985.4751
2022-08-26T10:31:00.968Z,985.5132
2022-08-26T10:32:02.479Z,985.4103
2022-08-26T10:33:00.259Z,985.4698
2022-08-26T10:34:00.751Z,985.4103
2022-08-26T10:35:00.575Z,985.352
2022-08-26T10:36:00.733Z,985.3533
2022-08-26T10:37:14.567Z,985.3131
2022-08-26T10:38:01.035Z,985.201
2022-08-26T10:39:01.197Z,985.3699
2022-08-26T10:40:00.418Z,985.2523
2022-08-26T10:41:00.476Z,985.2597
2022-08-26T10:42:00.638Z,985.1249
2022-08-26T10:43:00.785Z,985.1844
2022-08-26T10:44:00.970Z,985.1774
2022-08-26T10:45:01.077Z,985.383
2022-08-26T10:46:01.280Z,985.1774
2022-08-26T10:47:00.366Z,985.1021
2022-08-26T10:48:00.513Z,985.1617
2022-08-26T10:49:00.680Z,985.1774
2022-08-26T10:50:03.359Z,985.275
2022-08-26T10:51:00.973Z,985.1135
2022-08-26T10:52:01.094Z,985.278
2022-08-26T10:53:01.246Z,985.1235
2022-08-26T10:54:00.414Z,985.3671
2022-08-26T10:55:00.563Z,985.2881
2022-08-26T10:56:00.832Z,985.3531
2022-08-26T10:57:00.857Z,985.2145
2022-08-26T10:58:04.925Z,985.1931
2022-08-26T10:59:01.148Z,985.2451
2022-08-26T11:00:00.291Z,985.2001
2022-08-26T11:01:00.572Z,985.2438
2022-08-26T11:02:00.601Z,985.2893
2022-08-26T11:03:00.765Z,985.2893
2022-08-26T11:04:00.936Z,985.281
2022-08-26T11:05:01.050Z,985.2513
2022-08-26T11:06:01.202Z,985.2438
2022-08-26T11:07:00.345Z,985.2438
2022-08-26T11:08:00.509Z,985.2513
2022-08-26T11:09:00.662Z,985.043
2022-08-26T11:10:00.835Z,985.1533
2022-08-26T11:11:00.962Z,985.1603
2022-08-26T11:12:05.130Z,985.0483
2022-08-26T11:14:00.380Z,984.9944
2022-08-26T11:15:00.547Z,985.0128
2022-08-26T11:16:01.099Z,984.9852
2022-08-26T11:17:00.878Z,984.9813
2022-08-26T11:18:00.998Z,985.1635
2022-08-26T11:19:01.115Z,984.9151
2022-08-26T11:20:02.242Z,984.9295
2022-08-26T11:21:00.422Z,984.8611
2022-08-26T11:22:00.569Z,984.9422
2022-08-26T11:23:00.722Z,985.0593
2022-08-26T11:24:00.862Z,985.0948
2022-08-26T11:25:01.039Z,984.983
2022-08-26T11:26:01.169Z,984.9019
2022-08-26T11:27:00.347Z,984.8002
2022-08-26T11:28:00.814Z,984.9506
2022-08-26T11:29:00.612Z,984.9072
2022-08-26T11:30:00.780Z,984.9878
2022-08-26T11:31:00.915Z,985.1163
2022-08-26T11:32:01.150Z,985.251
2022-08-26T11:33:01.217Z,985.1361
2022-08-26T11:34:00.372Z,985.0965
2022-08-26T11:35:00.604Z,985.0417
2022-08-26T11:36:00.665Z,984.9677
2022-08-26T11:37:00.829Z,985.043
2022-08-26T11:38:01.009Z,985.2814
2022-08-26T11:39:01.137Z,984.9238
2022-08-26T11:40:00.402Z,984.9747
2022-08-26T11:41:00.430Z,985.1013
2022-08-26T11:42:00.589Z,984.9734
2022-08-26T11:43:00.758Z,985.2088
2022-08-26T11:44:01.293Z,985.1023
2022-08-26T11:45:04.707Z,985.1575
2022-08-26T11:46:01.328Z,985.2312
2022-08-26T11:47:00.371Z,985.0668
2022-08-26T11:48:00.530Z,985.2212
2022-08-26T11:49:00.670Z,985.1146
2022-08-26T11:50:00.838Z,985.1747